Great Totham, United Kingdom
Current Conditions -  °F | °C
As of 11:50 PM on Saturday 22 Nov 2014 (Local Time) from EGMC Reporting Station
Drizzle Drizzle  
Wind Chill: 55°   Ceiling: 400
Heat Index: 55°   Visibility: 4mi
Dew Point: 54°   Wind: 3mph
Humidity: 94%   Direction: 150°SSE
Pressure: 29.97"   Gusts: NA
Location:  51.77°N, 0.69°E
Report Text: EGMC 222350Z 15003KT 6000 -DZ BKN004 OVC006 13/12 Q1015
Loading
Personal Weather Stations






























Interactive Weather Map New forecast layout! Learn more

10-Day Weather Forecast

Advertisements
Track Severe Weather on mobile